Time;durP1;ratioP1;P1;durP2;ratioP2;P2;SDS_P1;SDS_P2;PMS_P1;PMS_P2;Temp;Humidity;BMP_temperature;BMP_pressure;BME280_temperature;BME280_humidity;BME280_pressure;Samples;Min_cycle;Max_cycle;Signal;HPM_P1;HPM_P2
2023/10/16 00:00:43;;;;;;;0.80;0.80;;;;;;;30.62;23.90;100687.66;7395395;19;20015;-58
2023/10/16 00:03:12;;;;;;;0.50;0.50;;;;;;;30.63;23.67;100689.16;7397480;19;20018;-57
2023/10/16 00:05:49;;;;;;;0.85;0.70;;;;;;;30.60;23.71;100687.50;7395978;19;20455;-58
2023/10/16 00:08:16;;;;;;;1.30;1.20;;;;;;;30.62;23.60;100681.91;7395585;19;20470;-58
2023/10/16 00:10:57;;;;;;;4.95;0.93;;;;;;;30.64;23.93;100690.69;7396199;19;20021;-58
2023/10/16 00:13:28;;;;;;;0.65;0.65;;;;;;;30.84;23.77;100686.56;7395021;19;20018;-57
2023/10/16 00:16:03;;;;;;;1.00;0.90;;;;;;;31.02;23.44;100679.41;7394755;19;20014;-57
2023/10/16 00:18:34;;;;;;;0.38;0.38;;;;;;;31.08;23.08;100682.75;7395890;19;20264;-57
2023/10/16 00:21:04;;;;;;;1.10;1.08;;;;;;;30.83;23.67;100690.81;7398252;19;20019;-57
2023/10/16 00:23:37;;;;;;;0.43;0.43;;;;;;;30.89;23.10;100682.66;7394962;19;20036;-57
2023/10/16 00:26:07;;;;;;;1.08;1.08;;;;;;;31.04;23.30;100688.19;7396283;19;20036;-58
2023/10/16 00:28:34;;;;;;;1.15;1.15;;;;;;;31.10;23.54;100680.03;7393506;19;20018;-58
2023/10/16 00:31:08;;;;;;;0.43;0.43;;;;;;;31.33;23.36;100680.41;7394481;19;20014;-57
2023/10/16 00:33:34;;;;;;;0.68;0.68;;;;;;;31.47;22.79;100688.66;7399055;19;20017;-57
2023/10/16 00:36:00;;;;;;;1.08;1.08;;;;;;;31.45;23.00;100674.13;7393614;19;20039;-58
2023/10/16 00:38:27;;;;;;;5.55;0.63;;;;;;;31.42;23.04;100688.31;7395272;19;20015;-58
2023/10/16 00:41:10;;;;;;;0.93;0.93;;;;;;;31.47;23.12;100682.91;7394051;19;20014;-58
2023/10/16 00:43:36;;;;;;;0.40;0.40;;;;;;;11.78;44.29;100725.19;7392883;19;20471;-57
2023/10/16 00:46:11;;;;;;;1.27;0.80;;;;;;;9.21;54.96;100729.06;7397726;19;20014;-57
2023/10/16 00:48:39;;;;;;;0.45;0.45;;;;;;;8.00;75.90;100735.75;7392223;19;20083;-57
2023/10/16 00:51:08;;;;;;;0.40;0.40;;;;;;;13.50;75.24;100727.69;7395945;19;20043;-57
2023/10/16 00:53:37;;;;;;;0.60;0.60;;;;;;;28.06;30.15;100697.09;7392277;19;20039;-57
2023/10/16 00:56:08;;;;;;;0.55;0.55;;;;;;;29.83;27.35;100692.66;7398068;19;20007;-57
2023/10/16 00:58:35;;;;;;;1.35;0.80;;;;;;;30.63;26.19;100694.94;7393513;19;20022;-58
2023/10/16 01:01:09;;;;;;;0.45;0.45;;;;;;;30.97;25.83;100683.31;7393182;19;20034;-57
2023/10/16 01:03:37;;;;;;;0.85;0.60;;;;;;;31.24;25.27;100692.66;7392649;19;20451;-57
2023/10/16 01:06:09;;;;;;;0.47;0.47;;;;;;;31.42;24.58;100682.56;7392990;19;20069;-57
2023/10/16 01:08:45;;;;;;;0.55;0.55;;;;;;;31.36;24.96;100682.06;7390812;19;20023;-57
2023/10/16 01:11:14;;;;;;;8.32;1.05;;;;;;;31.31;24.59;100688.91;7393565;19;20014;-57
2023/10/16 01:13:41;;;;;;;0.70;0.70;;;;;;;31.35;24.05;100689.22;7395411;19;20012;-57
2023/10/16 01:16:09;;;;;;;0.50;0.50;;;;;;;31.42;24.26;100685.44;7392063;19;20017;-57
2023/10/16 01:18:37;;;;;;;0.65;0.65;;;;;;;31.41;23.70;100691.81;7391988;19;20340;-58
2023/10/16 01:21:05;;;;;;;1.75;0.93;;;;;;;31.36;24.00;100682.06;7396468;19;20022;-57
2023/10/16 01:23:34;;;;;;;0.52;0.52;;;;;;;31.34;23.75;100681.91;7393452;19;20485;-57
2023/10/16 01:26:02;;;;;;;0.50;0.50;;;;;;;31.42;23.92;100681.84;7392314;19;20014;-57
2023/10/16 01:28:30;;;;;;;1.10;0.90;;;;;;;31.47;24.00;100677.88;7391375;19;20006;-57
2023/10/16 01:30:56;;;;;;;0.70;0.70;;;;;;;31.36;23.78;100676.31;7393532;19;20006;-57
2023/10/16 01:33:23;;;;;;;0.45;0.45;;;;;;;31.45;23.50;100677.00;7392258;19;20010;-57
2023/10/16 01:35:52;;;;;;;0.40;0.40;;;;;;;31.53;23.73;100671.84;7391788;19;20104;-57
2023/10/16 01:38:19;;;;;;;0.80;0.80;;;;;;;31.64;23.53;100668.38;7394497;19;20076;-57
2023/10/16 01:43:32;;;;;;;0.93;0.93;;;;;;;31.70;23.53;100665.94;7393741;19;20074;-58
2023/10/16 01:46:02;;;;;;;0.43;0.43;;;;;;;31.58;23.59;100656.41;7395644;19;20006;-58
2023/10/16 01:48:29;;;;;;;1.23;1.23;;;;;;;31.35;23.09;100654.66;7389916;19;20536;-58
2023/10/16 01:50:56;;;;;;;0.60;0.60;;;;;;;31.41;23.30;100657.25;7395034;19;20017;-57
2023/10/16 01:53:25;;;;;;;0.28;0.22;;;;;;;31.42;23.11;100653.03;7390332;19;20014;-58
2023/10/16 01:55:55;;;;;;;0.43;0.43;;;;;;;31.28;23.34;100654.78;7393842;19;20031;-58
2023/10/16 01:58:22;;;;;;;0.60;0.60;;;;;;;31.21;23.49;100659.31;7391391;19;20021;-57
2023/10/16 02:00:50;;;;;;;0.70;0.70;;;;;;;31.18;23.59;100651.91;7393001;19;20018;-57
2023/10/16 02:03:17;;;;;;;1.65;1.00;;;;;;;31.12;23.65;100647.78;7391519;19;20013;-57
2023/10/16 02:05:45;;;;;;;0.60;0.60;;;;;;;31.53;23.43;100640.94;7392310;19;20029;-58
2023/10/16 02:08:13;;;;;;;0.95;0.63;;;;;;;31.69;23.32;100638.50;7392859;19;20014;-58
2023/10/16 02:10:42;;;;;;;0.93;0.90;;;;;;;31.70;23.18;100640.03;7396610;19;20339;-58
2023/10/16 02:13:10;;;;;;;0.30;0.30;;;;;;;31.77;23.18;100642.75;7397344;19;20018;-57
2023/10/16 02:15:38;;;;;;;3.05;0.75;;;;;;;31.63;23.09;100640.94;7398447;19;20018;-58
2023/10/16 02:18:06;;;;;;;0.40;0.40;;;;;;;31.59;23.47;100643.50;7399942;19;20018;-57
2023/10/16 02:20:36;;;;;;;0.32;0.32;;;;;;;31.51;23.22;100649.41;7401626;19;20028;-59
2023/10/16 02:23:06;;;;;;;0.85;0.85;;;;;;;31.55;23.08;100643.19;7398706;19;20466;-57
2023/10/16 02:25:35;;;;;;;0.40;0.40;;;;;;;31.51;22.96;100642.91;7397830;19;20018;-58
2023/10/16 02:28:03;;;;;;;0.40;0.40;;;;;;;31.39;23.17;100643.44;7396994;19;20019;-58
2023/10/16 02:30:33;;;;;;;0.73;0.73;;;;;;;31.40;23.01;100639.22;7398245;19;20033;-57
2023/10/16 02:33:11;;;;;;;0.82;0.82;;;;;;;31.40;23.19;100639.22;7402150;19;20082;-57
2023/10/16 02:35:37;;;;;;;0.43;0.43;;;;;;;31.40;22.89;100635.59;7398578;19;20031;-58
2023/10/16 02:38:04;;;;;;;0.55;0.55;;;;;;;31.29;23.22;100642.69;7396812;19;20035;-58
2023/10/16 02:40:34;;;;;;;1.27;0.60;;;;;;;31.42;23.07;100639.38;7398806;19;20022;-58
2023/10/16 02:43:04;;;;;;;0.40;0.40;;;;;;;31.39;23.00;100643.44;7402728;19;20037;-58
2023/10/16 02:45:31;;;;;;;0.70;0.57;;;;;;;31.27;23.00;100633.88;7401005;19;20018;-58
2023/10/16 02:47:57;;;;;;;0.40;0.40;;;;;;;30.95;23.58;100628.47;7398721;19;20014;-58
2023/10/16 02:50:26;;;;;;;1.40;0.95;;;;;;;30.91;23.66;100627.41;7398530;19;20014;-58
2023/10/16 02:52:52;;;;;;;0.52;0.52;;;;;;;30.80;23.12;100622.94;7401377;19;20708;-58
2023/10/16 02:55:19;;;;;;;1.10;1.10;;;;;;;30.70;23.12;100625.03;7399285;19;20077;-58
2023/10/16 02:57:45;;;;;;;0.30;0.30;;;;;;;30.75;23.42;100626.88;7396742;19;20372;-58
2023/10/16 03:00:49;;;;;;;0.50;0.50;;;;;;;30.88;23.28;100626.50;7398401;19;20351;-57
2023/10/16 03:03:07;;;;;;;0.43;0.43;;;;;;;30.83;22.92;100621.75;7400227;19;20519;-58
2023/10/16 03:05:33;;;;;;;0.60;0.60;;;;;;;30.74;23.46;100625.34;7397580;19;20082;-58
2023/10/16 03:08:00;;;;;;;0.60;0.60;;;;;;;30.39;23.36;100615.34;7395474;19;20019;-57
2023/10/16 03:10:26;;;;;;;0.35;0.35;;;;;;;30.25;23.34;100619.94;7396882;19;20047;-58
2023/10/16 03:12:55;;;;;;;0.82;0.70;;;;;;;31.02;22.81;100621.84;7401192;19;20010;-58
2023/10/16 03:15:27;;;;;;;0.20;0.20;;;;;;;30.77;23.16;100624.16;7400700;19;20018;-58
2023/10/16 03:17:54;;;;;;;0.35;0.35;;;;;;;30.45;23.48;100610.09;7398013;19;20772;-57
2023/10/16 03:20:35;;;;;;;0.30;0.28;;;;;;;30.33;23.48;100609.09;7396770;19;20038;-58
2023/10/16 03:23:06;;;;;;;0.52;0.52;;;;;;;30.98;22.63;100615.78;7395242;19;20006;-58
2023/10/16 03:28:09;;;;;;;0.40;0.40;;;;;;;31.10;22.79;100610.97;7397790;19;20018;-58
2023/10/16 03:30:35;;;;;;;0.30;0.30;;;;;;;30.88;22.77;100617.88;7396816;19;20025;-58
2023/10/16 03:33:04;;;;;;;1.85;1.10;;;;;;;30.89;22.62;100612.84;7396476;19;20018;-58
2023/10/16 03:35:31;;;;;;;0.60;0.60;;;;;;;31.06;22.53;100616.41;7397820;19;20014;-58
2023/10/16 03:37:59;;;;;;;1.10;0.85;;;;;;;31.14;22.64;100617.03;7396784;19;20369;-58
2023/10/16 03:40:25;;;;;;;0.30;0.30;;;;;;;31.03;22.53;100617.63;7395482;19;20010;-58
2023/10/16 03:42:51;;;;;;;0.47;0.47;;;;;;;30.90;22.77;100620.16;7395230;19;20021;-58
2023/10/16 03:45:20;;;;;;;0.68;0.68;;;;;;;30.62;22.95;100621.53;7399395;19;20020;-58
2023/10/16 03:48:03;;;;;;;0.57;0.57;;;;;;;30.55;22.91;100613.75;7396818;19;20024;-58
2023/10/16 03:50:35;;;;;;;0.52;0.52;;;;;;;30.59;22.59;100614.09;7397709;19;20015;-58
2023/10/16 03:53:02;;;;;;;0.30;0.30;;;;;;;30.63;22.76;100614.41;7397305;19;20011;-58
2023/10/16 03:55:31;;;;;;;3.38;0.85;;;;;;;30.71;22.91;100604.28;7394823;19;20023;-58
2023/10/16 03:57:57;;;;;;;0.52;0.52;;;;;;;30.82;22.76;100614.47;7396693;19;20007;-58
2023/10/16 04:00:27;;;;;;;0.60;0.60;;;;;;;30.74;22.61;100619.59;7394513;19;20038;-58
2023/10/16 04:02:59;;;;;;;0.82;0.82;;;;;;;30.56;22.94;100610.28;7395664;19;20010;-58
2023/10/16 04:05:45;;;;;;;0.30;0.30;;;;;;;30.51;22.97;100602.72;7396250;19;20022;-58
2023/10/16 04:08:18;;;;;;;0.40;0.40;;;;;;;30.47;23.04;100601.63;7393578;19;20010;-58
2023/10/16 04:10:46;;;;;;;0.55;0.55;;;;;;;30.43;23.06;100593.41;7396424;19;20478;-58
2023/10/16 04:13:16;;;;;;;0.28;0.25;;;;;;;30.15;22.83;100590.38;7399173;19;20003;-58
2023/10/16 04:20:56;;;;;;;0.98;0.65;;;;;;;29.36;23.69;100588.81;7397455;19;20444;-58
2023/10/16 04:31:45;;;;;;;0.95;0.77;;;;;;;28.60;24.55;100580.88;7395905;19;20017;-58
2023/10/16 04:36:53;;;;;;;2.15;0.88;;;;;;;29.56;23.98;100579.78;7395206;19;20010;-57
2023/10/16 04:45:00;;;;;;;0.50;0.50;;;;;;;29.43;24.05;100568.66;7395588;19;20361;-58
2023/10/16 04:47:41;;;;;;;0.98;0.95;;;;;;;29.50;23.66;100567.78;7393144;19;20011;-58
2023/10/16 04:50:09;;;;;;;0.63;0.63;;;;;;;29.09;24.19;100568.59;7394593;19;20018;-58
2023/10/16 04:53:09;;;;;;;0.30;0.30;;;;;;;29.11;24.13;100557.28;7397069;19;20014;-57
2023/10/16 05:13:56;;;;;;;0.70;0.70;;;;;;;28.41;24.09;100544.09;7395063;19;20014;-57
2023/10/16 05:16:36;;;;;;;0.68;0.68;;;;;;;28.11;24.27;100543.56;7392372;19;20021;-57
2023/10/16 05:19:03;;;;;;;0.52;0.52;;;;;;;28.58;24.45;100539.81;7392555;19;20011;-57
2023/10/16 06:16:28;;;;;;;0.40;0.40;;;;;;;29.26;23.61;100514.09;7390883;19;20018;-57
2023/10/16 06:18:54;;;;;;;0.30;0.30;;;;;;;28.85;24.04;100512.03;7391150;19;20044;-57
2023/10/16 06:21:20;;;;;;;0.40;0.40;;;;;;;28.81;24.27;100517.41;7395269;19;20355;-57
2023/10/16 06:23:49;;;;;;;0.20;0.20;;;;;;;28.62;24.11;100511.47;7390994;19;20428;-57
2023/10/16 06:26:16;;;;;;;0.32;0.32;;;;;;;26.57;25.66;100522.97;7392446;19;20018;-57
2023/10/16 06:28:49;;;;;;;0.43;0.43;;;;;;;25.99;26.26;100531.63;7390589;19;20422;-58
2023/10/16 06:31:25;;;;;;;0.20;0.20;;;;;;;25.71;26.09;100523.16;7389918;19;20403;-58
2023/10/16 06:33:54;;;;;;;2.65;1.70;;;;;;;25.58;26.55;100530.50;7390050;19;20015;-58
2023/10/16 06:36:20;;;;;;;0.52;0.52;;;;;;;25.66;26.69;100535.50;7390317;19;20010;-58
2023/10/16 06:38:51;;;;;;;0.40;0.40;;;;;;;25.67;26.66;100531.31;7393201;19;20387;-58
2023/10/16 06:41:21;;;;;;;0.60;0.60;;;;;;;25.85;26.24;100530.22;7389430;19;20019;-58
2023/10/16 06:43:48;;;;;;;0.30;0.30;;;;;;;25.51;27.06;100528.38;7393485;19;20010;-58
2023/10/16 06:46:25;;;;;;;0.57;0.57;;;;;;;25.28;27.14;100536.03;7389223;19;20014;-58
2023/10/16 06:48:52;;;;;;;0.45;0.45;;;;;;;24.68;27.52;100532.75;7389696;19;20014;-58
2023/10/16 06:51:25;;;;;;;0.70;0.70;;;;;;;24.23;28.18;100535.22;7393417;19;20015;-58
2023/10/16 06:54:01;;;;;;;0.45;0.45;;;;;;;24.29;27.97;100541.53;7390711;19;20018;-58
2023/10/16 06:56:34;;;;;;;3.92;1.13;;;;;;;23.29;29.05;100532.34;7395883;19;20013;-58
2023/10/16 06:59:01;;;;;;;1.58;0.80;;;;;;;23.25;29.20;100529.06;7398970;19;20022;-58
2023/10/16 07:01:27;;;;;;;0.45;0.45;;;;;;;22.87;29.14;100531.34;7399500;19;20038;-58
2023/10/16 07:03:56;;;;;;;4.68;0.77;;;;;;;22.93;29.18;100532.03;7398898;19;20021;-58
2023/10/16 07:06:32;;;;;;;0.73;0.73;;;;;;;22.58;29.47;100538.06;7397576;19;20015;-58
2023/10/16 07:09:03;;;;;;;1.63;0.77;;;;;;;22.64;29.70;100530.22;7397301;19;20025;-58
2023/10/16 07:11:30;;;;;;;0.22;0.22;;;;;;;22.21;30.38;100533.25;7398836;19;20002;-58
2023/10/16 07:13:57;;;;;;;1.65;0.82;;;;;;;21.27;31.46;100537.34;7396886;19;20025;-58
2023/10/16 07:16:23;;;;;;;0.25;0.25;;;;;;;21.73;30.94;100539.09;7396534;19;20469;-58
2023/10/16 07:18:54;;;;;;;0.80;0.70;;;;;;;19.49;33.56;100542.91;7398334;19;20215;-58
2023/10/16 07:21:21;;;;;;;0.45;0.45;;;;;;;20.10;33.10;100543.31;7398932;19;20014;-59
2023/10/16 07:23:47;;;;;;;3.50;1.33;;;;;;;19.46;33.57;100541.13;7395867;19;20023;-58
2023/10/16 07:26:18;;;;;;;0.75;0.73;;;;;;;18.60;34.64;100548.00;7398421;19;20368;-58
2023/10/16 07:28:50;;;;;;;0.93;0.82;;;;;;;18.59;34.91;100544.41;7395459;19;20014;-58
2023/10/16 07:31:17;;;;;;;0.40;0.40;;;;;;;18.26;35.77;100549.28;7396350;19;20042;-58
2023/10/16 07:33:50;;;;;;;0.73;0.73;;;;;;;18.39;35.64;100546.69;7397866;19;20067;-58
2023/10/16 07:36:17;;;;;;;2.50;0.82;;;;;;;18.47;36.23;100539.31;7396152;19;20020;-58
2023/10/16 07:38:44;;;;;;;0.65;0.65;;;;;;;19.41;34.86;100542.69;7397314;19;20025;-58
2023/10/16 07:41:18;;;;;;;0.75;0.75;;;;;;;19.14;35.34;100537.91;7396858;19;20360;-58
2023/10/16 07:43:46;;;;;;;0.35;0.35;;;;;;;20.24;34.55;100528.09;7395553;19;20081;-58
2023/10/16 07:48:49;;;;;;;0.73;0.73;;;;;;;19.49;35.83;100526.72;7393557;19;20010;-58
2023/10/16 07:51:16;;;;;;;0.22;0.22;;;;;;;19.47;35.59;100523.66;7398667;19;20402;-58
2023/10/16 07:53:42;;;;;;;0.38;0.38;;;;;;;20.16;35.37;100520.66;7395504;19;20007;-58
2023/10/16 07:59:18;;;;;;;0.43;0.43;;;;;;;20.00;35.76;100518.72;7396375;19;20015;-58
2023/10/16 08:01:52;;;;;;;1.85;1.23;;;;;;;19.90;35.47;100520.34;7395597;19;20024;-58
2023/10/16 08:04:28;;;;;;;0.85;0.85;;;;;;;19.49;36.16;100521.06;7395049;19;20115;-58
2023/10/16 08:07:04;;;;;;;0.40;0.40;;;;;;;18.88;37.05;100514.88;7396657;19;20018;-58
2023/10/16 08:12:18;;;;;;;0.40;0.40;;;;;;;19.15;36.77;100514.00;7398528;19;20025;-59
2023/10/16 08:14:46;;;;;;;1.05;0.50;;;;;;;19.29;37.31;100507.28;7395935;19;20339;-58
2023/10/16 08:17:17;;;;;;;3.90;1.70;;;;;;;19.07;37.28;100518.66;7395824;19;20021;-58
2023/10/16 08:19:44;;;;;;;0.63;0.63;;;;;;;18.48;38.64;100523.91;7395453;19;20369;-59
2023/10/16 08:22:13;;;;;;;0.50;0.50;;;;;;;18.92;38.28;100516.16;7396860;19;20227;-59
2023/10/16 08:24:57;;;;;;;0.28;0.28;;;;;;;18.99;38.36;100517.66;7393542;19;20031;-59
2023/10/16 08:30:18;;;;;;;0.75;0.75;;;;;;;19.89;37.75;100524.44;7395380;19;20390;-58
2023/10/16 08:35:20;;;;;;;0.63;0.63;;;;;;;19.75;38.08;100520.66;7394729;19;20006;-59
2023/10/16 08:37:59;;;;;;;0.40;0.40;;;;;;;20.03;38.14;100517.69;7393644;19;20014;-59
2023/10/16 08:40:35;;;;;;;0.50;0.50;;;;;;;21.42;36.64;100514.28;7394982;19;20021;-59
2023/10/16 08:43:07;;;;;;;0.52;0.52;;;;;;;21.66;36.38;100512.13;7398085;19;20019;-58
2023/10/16 08:45:34;;;;;;;3.53;0.85;;;;;;;21.52;36.59;100519.03;7397903;19;20015;-58
2023/10/16 08:48:05;;;;;;;0.30;0.30;;;;;;;21.44;36.49;100517.34;7394731;19;20018;-58
2023/10/16 08:50:42;;;;;;;0.80;0.80;;;;;;;21.23;37.49;100519.91;7394546;19;20459;-58
2023/10/16 08:55:59;;;;;;;0.85;0.85;;;;;;;21.72;37.16;100514.88;7393421;19;20456;-58
2023/10/16 08:58:26;;;;;;;0.97;0.93;;;;;;;21.80;37.21;100510.13;7395365;19;20017;-59
2023/10/16 09:00:55;;;;;;;0.40;0.40;;;;;;;21.91;37.20;100498.66;7393176;19;20030;-58
2023/10/16 09:03:22;;;;;;;0.70;0.70;;;;;;;22.73;36.57;100497.78;7398029;19;20017;-58
2023/10/16 09:05:49;;;;;;;0.50;0.50;;;;;;;22.05;37.37;100510.78;7392494;19;20011;-59
2023/10/16 09:08:15;;;;;;;0.47;0.47;;;;;;;20.51;39.28;100514.22;7393919;19;20040;-58
2023/10/16 09:10:42;;;;;;;2.33;0.55;;;;;;;20.11;39.96;100510.94;7394484;19;20018;-59
2023/10/16 09:13:16;;;;;;;0.73;0.73;;;;;;;19.87;40.91;100516.50;7396453;19;20021;-60
2023/10/16 09:15:45;;;;;;;0.88;0.88;;;;;;;20.48;40.70;100518.09;7393423;19;20341;-59
2023/10/16 09:18:15;;;;;;;0.85;0.85;;;;;;;20.67;40.91;100519.72;7391747;19;20022;-58
2023/10/16 09:20:42;;;;;;;0.88;0.85;;;;;;;21.33;39.71;100515.38;7396603;19;20034;-59
2023/10/16 09:23:13;;;;;;;0.57;0.52;;;;;;;20.57;41.17;100510.06;7397399;19;20099;-59
2023/10/16 09:25:43;;;;;;;;;;;;;;;21.02;41.11;100507.50;7393885;19;20049;-58
2023/10/16 09:28:16;;;;;;;7.97;1.55;;;;;;;21.33;40.66;100506.88;7392228;19;19934;-58
2023/10/16 09:30:45;;;;;;;0.90;0.90;;;;;;;21.48;40.89;100517.78;7391949;19;20038;-58
2023/10/16 09:33:14;;;;;;;0.38;0.38;;;;;;;22.00;40.33;100495.41;7397980;19;20443;-58
2023/10/16 09:35:44;;;;;;;0.98;0.98;;;;;;;22.76;40.05;100508.06;7391890;19;20010;-58
2023/10/16 09:38:17;;;;;;;0.80;0.80;;;;;;;22.65;40.41;100508.28;7392561;19;20398;-59
2023/10/16 09:41:37;;;;;;;1.05;0.85;;;;;;;22.21;40.86;100507.72;7391319;19;20488;-59
2023/10/16 09:43:56;;;;;;;1.35;1.13;;;;;;;22.66;40.46;100510.56;7393349;19;20014;-58
2023/10/16 09:47:25;;;;;;;0.30;0.30;;;;;;;22.42;40.78;100499.34;7393753;19;20010;-58
2023/10/16 09:49:23;;;;;;;0.52;0.52;;;;;;;22.49;41.14;100490.19;7393756;19;20017;-58
2023/10/16 09:52:04;;;;;;;4.40;1.10;;;;;;;22.57;41.27;100497.53;7396154;19;20048;-58
2023/10/16 09:54:30;;;;;;;3.60;1.17;;;;;;;22.07;42.85;100497.59;7391160;19;20464;-58
2023/10/16 09:56:59;;;;;;;0.50;0.50;;;;;;;22.71;42.09;100506.09;7391280;19;20015;-58
2023/10/16 09:59:32;;;;;;;1.48;1.38;;;;;;;22.63;42.58;100495.38;7391041;19;20022;-59
2023/10/16 10:02:05;;;;;;;1.08;1.08;;;;;;;22.71;43.15;100503.25;7394163;19;20011;-58
2023/10/16 10:04:38;;;;;;;0.75;0.75;;;;;;;24.54;40.69;100499.97;7390984;19;20059;-59
2023/10/16 10:07:14;;;;;;;0.73;0.73;;;;;;;24.51;41.20;100501.09;7391835;19;20022;-59
2023/10/16 10:09:46;;;;;;;0.50;0.50;;;;;;;25.12;40.92;100499.47;7389003;19;20074;-59
2023/10/16 10:12:28;;;;;;;0.57;0.57;;;;;;;24.73;41.97;100484.16;7394059;19;20011;-59
2023/10/16 10:15:14;;;;;;;0.85;0.85;;;;;;;25.01;41.99;100488.38;7390456;19;20014;-58
2023/10/16 10:17:46;;;;;;;0.38;0.38;;;;;;;24.18;43.02;100484.88;7391015;19;20015;-58
2023/10/16 10:20:26;;;;;;;0.30;0.30;;;;;;;24.60;43.13;100474.97;7392715;19;20455;-58
2023/10/16 10:23:04;;;;;;;0.40;0.40;;;;;;;24.35;43.75;100476.66;7393321;19;20459;-59
2023/10/16 10:25:38;;;;;;;0.85;0.57;;;;;;;25.19;43.22;100476.69;7390380;19;20031;-59
2023/10/16 10:28:22;;;;;;;1.60;0.43;;;;;;;25.32;42.90;100465.16;7391429;19;20329;-58
2023/10/16 10:30:50;;;;;;;0.25;0.22;;;;;;;24.42;44.22;100467.41;7392506;19;20360;-58
2023/10/16 10:33:38;;;;;;;0.50;0.43;;;;;;;26.74;42.03;100457.44;7401393;19;20030;-59
2023/10/16 10:36:29;;;;;;;0.30;0.30;;;;;;;25.58;42.85;100464.91;7398361;19;20437;-59
2023/10/16 10:39:20;;;;;;;0.30;0.30;;;;;;;25.48;43.15;100472.47;7399492;19;20034;-59
2023/10/16 10:41:54;;;;;;;0.77;0.77;;;;;;;25.03;43.75;100466.53;7398467;19;20485;-59
2023/10/16 10:44:29;;;;;;;0.35;0.25;;;;;;;25.39;43.04;100464.44;7401164;19;20014;-59
2023/10/16 10:46:56;;;;;;;7.35;0.55;;;;;;;25.42;43.42;100466.19;7397124;19;20048;-59
2023/10/16 10:49:35;;;;;;;3.95;2.20;;;;;;;26.27;42.27;100489.41;7395496;19;20329;-59
2023/10/16 10:52:06;;;;;;;4.78;2.28;;;;;;;26.86;41.25;100472.84;7402031;19;20015;-59
2023/10/16 10:54:53;;;;;;;2.90;0.85;;;;;;;27.21;40.86;100467.41;7396815;19;20417;-59
2023/10/16 10:57:22;;;;;;;1.52;0.20;;;;;;;26.32;41.31;100473.44;7398573;19;20012;-59
2023/10/16 10:59:54;;;;;;;0.20;0.20;;;;;;;25.61;42.64;100467.94;7397887;19;20021;-59
2023/10/16 11:04:59;;;;;;;0.75;0.35;;;;;;;25.99;43.00;100468.81;7397265;19;20011;-59
2023/10/16 11:07:39;;;;;;;0.20;0.20;;;;;;;25.92;42.48;100461.75;7398368;19;20370;-59
2023/10/16 11:10:06;;;;;;;0.35;0.25;;;;;;;26.68;41.79;100448.25;7396380;19;20025;-59
2023/10/16 11:12:33;;;;;;;0.45;0.45;;;;;;;26.51;41.50;100458.78;7400271;19;20007;-59
2023/10/16 11:15:01;;;;;;;1.00;0.57;;;;;;;26.16;42.07;100451.91;7398308;19;20015;-59
2023/10/16 11:17:32;;;;;;;1.00;0.35;;;;;;;25.10;44.00;100448.69;7398161;19;20014;-60
2023/10/16 11:22:45;;;;;;;0.43;0.30;;;;;;;24.59;45.10;100445.72;7399712;19;20486;-60
2023/10/16 11:25:13;;;;;;;0.20;0.20;;;;;;;24.87;44.54;100442.13;7397467;19;20014;-63
2023/10/16 11:27:42;;;;;;;0.30;0.30;;;;;;;25.82;43.99;100437.94;7397058;19;20427;-58
2023/10/16 11:30:18;;;;;;;0.70;0.70;;;;;;;25.88;43.12;100435.66;7395082;19;20552;-60
2023/10/16 11:32:47;;;;;;;2.95;0.45;;;;;;;25.77;42.78;100438.13;7398388;19;20014;-57
2023/10/16 11:35:17;;;;;;;0.20;0.13;;;;;;;25.71;42.32;100434.72;7397748;19;20010;-57
2023/10/16 11:37:52;;;;;;;0.20;0.10;;;;;;;25.45;42.79;100433.66;7397260;19;20027;-59
2023/10/16 11:40:31;;;;;;;0.55;0.45;;;;;;;25.94;42.12;100424.09;7398029;19;20007;-58
2023/10/16 11:43:02;;;;;;;0.55;0.55;;;;;;;26.48;41.31;100417.06;7400452;19;20011;-57
2023/10/16 11:45:33;;;;;;;0.50;0.25;;;;;;;26.49;41.50;100415.69;7398795;19;20014;-58
2023/10/16 11:50:50;;;;;;;0.10;0.10;;;;;;;30.21;36.91;100406.94;7398295;19;20014;-58
2023/10/16 11:53:28;;;;;;;0.10;0.10;;;;;;;31.61;34.56;100398.84;7402193;19;20018;-57
2023/10/16 11:55:56;;;;;;;0.40;0.40;;;;;;;31.89;33.16;100400.84;7396840;19;20335;-58
2023/10/16 11:58:22;;;;;;;0.25;0.15;;;;;;;32.09;33.13;100396.56;7396689;19;20006;-57
2023/10/16 12:00:54;;;;;;;0.57;0.28;;;;;;;29.68;34.97;100397.03;7396964;19;20014;-50
2023/10/16 12:03:23;;;;;;;0.17;0.13;;;;;;;28.81;36.01;100389.16;7400525;19;20010;-52
2023/10/16 12:05:50;;;;;;;0.17;0.17;;;;;;;28.24;37.00;100397.19;7396458;19;20011;-51
2023/10/16 12:08:18;;;;;;;1.92;0.35;;;;;;;27.89;37.82;100396.28;7396149;19;20011;-52
2023/10/16 12:10:46;;;;;;;0.10;0.10;;;;;;;29.22;36.72;100402.63;7396148;19;20010;-54
2023/10/16 12:13:15;;;;;;;0.20;0.20;;;;;;;28.94;37.29;100399.50;7400222;19;20477;-52
2023/10/16 12:15:43;;;;;;;0.10;0.10;;;;;;;29.08;36.80;100386.34;7395738;19;20035;-51
2023/10/16 12:18:12;;;;;;;0.88;0.22;;;;;;;29.01;35.53;100392.94;7393935;19;20083;-51
2023/10/16 12:20:39;;;;;;;0.10;0.10;;;;;;;28.81;35.40;100392.03;7397096;19;20343;-51
2023/10/16 12:23:06;;;;;;;2.30;0.38;;;;;;;28.95;35.47;100386.72;7399280;19;20018;-52
2023/10/16 12:25:34;;;;;;;6.47;0.43;;;;;;;28.87;35.50;100380.31;7395781;19;20021;-52
2023/10/16 12:28:02;;;;;;;0.47;0.25;;;;;;;28.64;35.59;100382.66;7395137;19;20014;-52
2023/10/16 12:30:28;;;;;;;0.20;0.10;;;;;;;28.75;34.88;100380.06;7395976;19;20018;-52
2023/10/16 12:32:54;;;;;;;0.25;0.25;;;;;;;29.50;34.75;100377.59;7397859;19;20019;-53
2023/10/16 12:35:22;;;;;;;0.40;0.40;;;;;;;30.12;33.80;100376.06;7394308;19;20014;-53
2023/10/16 12:37:55;;;;;;;0.22;0.22;;;;;;;30.68;32.77;100363.16;7394485;19;20014;-53
2023/10/16 12:40:33;;;;;;;0.10;0.10;;;;;;;28.37;34.82;100368.22;7394925;19;20027;-54
2023/10/16 12:43:00;;;;;;;1.63;0.68;;;;;;;28.96;34.55;100373.88;7398299;19;20011;-53
2023/10/16 12:45:27;;;;;;;6.13;0.28;;;;;;;28.63;34.81;100378.28;7397931;19;20080;-53
2023/10/16 12:47:54;;;;;;;0.82;0.40;;;;;;;28.96;35.10;100368.13;7395427;19;20010;-53
2023/10/16 12:50:25;;;;;;;1.23;0.50;;;;;;;30.83;33.24;100367.84;7396334;19;20011;-53
2023/10/16 12:52:52;;;;;;;0.10;0.10;;;;;;;31.26;32.90;100373.28;7396372;19;20014;-52
2023/10/16 12:55:19;;;;;;;0.30;0.30;;;;;;;30.58;33.27;100374.66;7395078;19;20010;-52
2023/10/16 12:57:48;;;;;;;0.30;0.30;;;;;;;30.67;33.07;100362.41;7393011;19;20435;-52
2023/10/16 13:00:21;;;;;;;0.10;0.10;;;;;;;31.72;32.32;100358.63;7394833;19;20014;-53
2023/10/16 13:02:49;;;;;;;9.30;0.55;;;;;;;31.96;31.92;100365.38;7397378;19;20009;-53
2023/10/16 13:05:16;;;;;;;0.32;0.10;;;;;;;31.90;32.01;100362.03;7395097;19;20008;-53
2023/10/16 13:07:43;;;;;;;0.20;0.20;;;;;;;31.41;31.98;100358.59;7393537;19;20018;-52
2023/10/16 13:10:20;;;;;;;1.85;0.68;;;;;;;31.48;31.81;100353.25;7390736;19;20335;-53
2023/10/16 13:12:47;;;;;;;0.63;0.10;;;;;;;31.16;32.15;100349.53;7398019;19;20519;-53
2023/10/16 13:15:16;;;;;;;1.88;0.22;;;;;;;30.29;32.68;100350.06;7398716;19;20017;-54
2023/10/16 13:17:48;;;;;;;0.63;0.63;;;;;;;29.80;33.33;100351.31;7394416;19;20472;-50
2023/10/16 13:20:17;;;;;;;1.10;0.20;;;;;;;30.58;32.83;100353.78;7395736;19;20111;-52
2023/10/16 13:22:44;;;;;;;0.10;0.10;;;;;;;28.76;34.27;100350.00;7393122;19;20015;-51
2023/10/16 13:25:12;;;;;;;0.20;0.20;;;;;;;29.34;34.13;100351.22;7391851;19;20035;-52
2023/10/16 13:27:39;;;;;;;0.10;0.10;;;;;;;29.61;34.22;100346.22;7397919;19;20373;-51
2023/10/16 13:30:11;;;;;;;0.50;0.30;;;;;;;28.28;35.18;100340.22;7392499;19;20018;-52
2023/10/16 13:32:41;;;;;;;0.10;0.00;;;;;;;28.95;34.28;100337.94;7392686;19;20030;-51
2023/10/16 13:35:16;;;;;;;2.70;0.20;;;;;;;29.46;33.24;100339.94;7393082;19;20034;-52
2023/10/16 13:37:44;;;;;;;0.40;0.40;;;;;;;28.80;34.16;100343.88;7392603;19;20074;-52
2023/10/16 13:40:20;;;;;;;0.77;0.43;;;;;;;29.61;32.74;100343.34;7392548;19;20015;-52
2023/10/16 13:42:51;;;;;;;0.20;0.13;;;;;;;28.09;34.58;100345.75;7390947;19;20726;-56
2023/10/16 13:45:18;;;;;;;0.30;0.17;;;;;;;28.07;34.78;100349.19;7396934;19;20002;-58
2023/10/16 13:47:46;;;;;;;0.20;0.20;;;;;;;28.09;34.80;100346.50;7392775;19;20018;-59